Decoded Metar for LFQQ (LILLE in FRANCE) (IATA:LIL) | Meteo·Mobile Aviation Weather
aviador You're here:

LFQQ Decoded Metar

LILLE in FRANCE
Report Time2018-11-19 22:30:00
UTC Time2018-11-19 22:40:29
Flight Rules vfr VFR
Wind050° at 15 kt
W.Decomp.*RWY 08: 13.0 kt HW 7.5 kt LCW
RWY 02: 13.0 kt HW 7.5 kt RCW
W.Rank050° ranks 15
Current wind is above 050° avg. (7.1)
Visibility9999 m
Phenomena:N/A
Clouds:Few 025 Hf
Overcast 052 Hf
Expected CloudBase > 1,600 ft AGL from Temp-Dew spread
Ceiling5,200 ft
Temp04°C (ISA -11)
Dew Point00°C (75% RH)
AAT-3.4°C
QNH1011 hPa
Density Alt-968 ft
Elevation171 ft
Report Wrong Elevation
Raw Report
METAR LFQQ 192230Z AUTO 05015KT 9999 FEW025 OVC052 04/M00 Q1011
TEMPO 05015G25KT OVC012=

Extra information for LFQQ:More info

Metar Taf Metar & Taf Last 4 Metars F.Rules Stats Wind Profile Meteogram Temp Stats Airport Information Weather charts Add Link Nearby VenuesMetar ALERT Operation Metar Decoded Social comments